sensor_id;sensor_type;location;lat;lon;timestamp;pressure;altitude;pressure_sealevel;temperature
18713;BMP280;9485;49.386;8.674;2023-08-01T00:02:04;99328.38;;;18.89
18713;BMP280;9485;49.386;8.674;2023-08-01T00:07:26;99312.56;;;18.88
18713;BMP280;9485;49.386;8.674;2023-08-01T00:12:47;99302.13;;;18.83
18713;BMP280;9485;49.386;8.674;2023-08-01T00:18:11;99274.84;;;18.82
18713;BMP280;9485;49.386;8.674;2023-08-01T00:23:33;99246.84;;;18.81
18713;BMP280;9485;49.386;8.674;2023-08-01T00:28:55;99235.22;;;18.79
18713;BMP280;9485;49.386;8.674;2023-08-01T00:34:17;99207.97;;;18.78
18713;BMP280;9485;49.386;8.674;2023-08-01T00:39:37;99202.66;;;18.74
18713;BMP280;9485;49.386;8.674;2023-08-01T00:44:58;99206.25;;;18.75
18713;BMP280;9485;49.386;8.674;2023-08-01T00:50:22;99187.53;;;18.81
18713;BMP280;9485;49.386;8.674;2023-08-01T00:55:43;99206.41;;;18.84
18713;BMP280;9485;49.386;8.674;2023-08-01T01:01:04;99204.22;;;18.92
18713;BMP280;9485;49.386;8.674;2023-08-01T01:06:32;99178.44;;;18.99
18713;BMP280;9485;49.386;8.674;2023-08-01T01:11:53;99157.31;;;18.95
18713;BMP280;9485;49.386;8.674;2023-08-01T01:17:13;99154.44;;;18.95
18713;BMP280;9485;49.386;8.674;2023-08-01T01:22:37;99125.91;;;18.87
18713;BMP280;9485;49.386;8.674;2023-08-01T01:28:01;99134.84;;;18.91
18713;BMP280;9485;49.386;8.674;2023-08-01T01:33:24;99129.72;;;18.90
18713;BMP280;9485;49.386;8.674;2023-08-01T01:38:46;99140.22;;;18.87
18713;BMP280;9485;49.386;8.674;2023-08-01T01:44:07;99146.50;;;18.86
18713;BMP280;9485;49.386;8.674;2023-08-01T01:49:28;99132.78;;;18.84
18713;BMP280;9485;49.386;8.674;2023-08-01T01:54:50;99144.56;;;18.88
18713;BMP280;9485;49.386;8.674;2023-08-01T02:00:12;99145.88;;;18.95
18713;BMP280;9485;49.386;8.674;2023-08-01T02:05:32;99130.34;;;19.05
18713;BMP280;9485;49.386;8.674;2023-08-01T02:10:54;99133.94;;;19.06
18713;BMP280;9485;49.386;8.674;2023-08-01T02:16:17;99120.41;;;19.06
18713;BMP280;9485;49.386;8.674;2023-08-01T02:21:38;99114.50;;;19.04
18713;BMP280;9485;49.386;8.674;2023-08-01T02:26:59;99114.31;;;19.10
18713;BMP280;9485;49.386;8.674;2023-08-01T02:32:20;99107.25;;;19.11
18713;BMP280;9485;49.386;8.674;2023-08-01T02:37:41;99096.72;;;19.13
18713;BMP280;9485;49.386;8.674;2023-08-01T02:43:02;99099.78;;;19.15
18713;BMP280;9485;49.386;8.674;2023-08-01T02:48:23;99104.31;;;19.18
18713;BMP280;9485;49.386;8.674;2023-08-01T02:53:44;99092.44;;;19.22
18713;BMP280;9485;49.386;8.674;2023-08-01T02:59:05;99081.19;;;19.24
18713;BMP280;9485;49.386;8.674;2023-08-01T03:04:27;99075.63;;;19.26
18713;BMP280;9485;49.386;8.674;2023-08-01T03:09:48;99069.13;;;19.25
18713;BMP280;9485;49.386;8.674;2023-08-01T03:15:11;99067.53;;;19.15
18713;BMP280;9485;49.386;8.674;2023-08-01T03:20:32;99069.28;;;19.10
18713;BMP280;9485;49.386;8.674;2023-08-01T03:25:52;99070.44;;;19.07
18713;BMP280;9485;49.386;8.674;2023-08-01T03:31:14;99082.06;;;19.09
18713;BMP280;9485;49.386;8.674;2023-08-01T03:36:34;99081.09;;;19.07
18713;BMP280;9485;49.386;8.674;2023-08-01T03:41:55;99062.28;;;19.04
18713;BMP280;9485;49.386;8.674;2023-08-01T03:47:17;99060.53;;;19.08
18713;BMP280;9485;49.386;8.674;2023-08-01T03:52:38;99027.72;;;19.09
18713;BMP280;9485;49.386;8.674;2023-08-01T03:57:58;99036.47;;;19.11
18713;BMP280;9485;49.386;8.674;2023-08-01T04:03:20;99030.50;;;19.17
18713;BMP280;9485;49.386;8.674;2023-08-01T04:08:41;99033.69;;;19.21
18713;BMP280;9485;49.386;8.674;2023-08-01T04:14:02;99033.69;;;19.21
18713;BMP280;9485;49.386;8.674;2023-08-01T04:19:23;99025.94;;;19.14
18713;BMP280;9485;49.386;8.674;2023-08-01T04:24:44;99040.69;;;19.10
18713;BMP280;9485;49.386;8.674;2023-08-01T04:30:06;99042.00;;;19.09
18713;BMP280;9485;49.386;8.674;2023-08-01T04:35:29;99009.44;;;19.05
18713;BMP280;9485;49.386;8.674;2023-08-01T04:40:49;99010.28;;;18.98
18713;BMP280;9485;49.386;8.674;2023-08-01T04:46:10;99020.03;;;18.95
18713;BMP280;9485;49.386;8.674;2023-08-01T04:51:32;99009.94;;;18.94
18713;BMP280;9485;49.386;8.674;2023-08-01T04:56:53;99032.16;;;19.03
18713;BMP280;9485;49.386;8.674;2023-08-01T05:02:13;99038.19;;;19.07
18713;BMP280;9485;49.386;8.674;2023-08-01T05:07:35;99009.81;;;19.09
18713;BMP280;9485;49.386;8.674;2023-08-01T05:12:55;99016.50;;;19.04
18713;BMP280;9485;49.386;8.674;2023-08-01T05:18:17;99034.84;;;19.01
18713;BMP280;9485;49.386;8.674;2023-08-01T05:23:39;99038.47;;;19.01
18713;BMP280;9485;49.386;8.674;2023-08-01T05:28:59;99042.41;;;19.06
18713;BMP280;9485;49.386;8.674;2023-08-01T05:34:20;99025.84;;;19.04
18713;BMP280;9485;49.386;8.674;2023-08-01T05:39:42;99026.25;;;19.01
18713;BMP280;9485;49.386;8.674;2023-08-01T05:45:03;99040.56;;;19.01
18713;BMP280;9485;49.386;8.674;2023-08-01T05:50:24;99018.59;;;18.86
18713;BMP280;9485;49.386;8.674;2023-08-01T05:55:45;99041.41;;;18.70
18713;BMP280;9485;49.386;8.674;2023-08-01T06:01:06;99033.88;;;18.57
18713;BMP280;9485;49.386;8.674;2023-08-01T06:06:28;99052.94;;;18.62
18713;BMP280;9485;49.386;8.674;2023-08-01T06:11:50;99048.84;;;18.48
18713;BMP280;9485;49.386;8.674;2023-08-01T06:17:10;99042.59;;;18.42
18713;BMP280;9485;49.386;8.674;2023-08-01T06:22:31;99041.25;;;18.43
18713;BMP280;9485;49.386;8.674;2023-08-01T06:27:53;99013.63;;;18.46
18713;BMP280;9485;49.386;8.674;2023-08-01T06:33:14;99023.69;;;18.47
18713;BMP280;9485;49.386;8.674;2023-08-01T06:38:35;99022.13;;;18.53
18713;BMP280;9485;49.386;8.674;2023-08-01T06:43:56;99024.56;;;18.57
18713;BMP280;9485;49.386;8.674;2023-08-01T06:49:18;99011.09;;;18.50
18713;BMP280;9485;49.386;8.674;2023-08-01T06:54:40;99028.84;;;18.48
18713;BMP280;9485;49.386;8.674;2023-08-01T07:00:02;99030.59;;;18.44
18713;BMP280;9485;49.386;8.674;2023-08-01T07:05:25;99023.53;;;18.45
18713;BMP280;9485;49.386;8.674;2023-08-01T07:10:46;99015.13;;;18.47
18713;BMP280;9485;49.386;8.674;2023-08-01T07:16:08;98982.34;;;18.48
18713;BMP280;9485;49.386;8.674;2023-08-01T07:21:29;98978.75;;;18.47
18713;BMP280;9485;49.386;8.674;2023-08-01T07:26:49;98985.44;;;18.67
18713;BMP280;9485;49.386;8.674;2023-08-01T07:32:12;99005.88;;;18.80
18713;BMP280;9485;49.386;8.674;2023-08-01T07:37:33;99001.84;;;18.83
18713;BMP280;9485;49.386;8.674;2023-08-01T07:42:54;99017.91;;;18.95
18713;BMP280;9485;49.386;8.674;2023-08-01T07:48:16;99022.66;;;19.00
18713;BMP280;9485;49.386;8.674;2023-08-01T07:53:36;99016.63;;;19.13
18713;BMP280;9485;49.386;8.674;2023-08-01T07:58:57;99027.22;;;19.20
18713;BMP280;9485;49.386;8.674;2023-08-01T08:04:19;99030.91;;;19.30
18713;BMP280;9485;49.386;8.674;2023-08-01T08:09:39;99035.56;;;19.43
18713;BMP280;9485;49.386;8.674;2023-08-01T08:15:00;99028.13;;;19.57
18713;BMP280;9485;49.386;8.674;2023-08-01T08:20:21;99040.72;;;19.87
18713;BMP280;9485;49.386;8.674;2023-08-01T08:25:43;99047.28;;;20.50
18713;BMP280;9485;49.386;8.674;2023-08-01T08:31:05;99046.63;;;20.68
18713;BMP280;9485;49.386;8.674;2023-08-01T08:36:27;99050.22;;;21.05
18713;BMP280;9485;49.386;8.674;2023-08-01T08:41:50;99047.38;;;21.33
18713;BMP280;9485;49.386;8.674;2023-08-01T08:47:11;99050.88;;;21.50
18713;BMP280;9485;49.386;8.674;2023-08-01T08:52:34;99051.63;;;21.51
18713;BMP280;9485;49.386;8.674;2023-08-01T08:57:55;99053.63;;;21.58
18713;BMP280;9485;49.386;8.674;2023-08-01T09:03:16;99062.22;;;21.48
18713;BMP280;9485;49.386;8.674;2023-08-01T09:08:40;99054.06;;;21.83
18713;BMP280;9485;49.386;8.674;2023-08-01T09:14:02;99068.88;;;21.89
18713;BMP280;9485;49.386;8.674;2023-08-01T09:19:24;99074.84;;;21.08
18713;BMP280;9485;49.386;8.674;2023-08-01T09:24:54;99094.84;;;20.89
18713;BMP280;9485;49.386;8.674;2023-08-01T09:30:14;99080.22;;;20.85
18713;BMP280;9485;49.386;8.674;2023-08-01T09:35:39;99091.00;;;24.08
18713;BMP280;9485;49.386;8.674;2023-08-01T09:41:01;99096.94;;;23.68
18713;BMP280;9485;49.386;8.674;2023-08-01T09:46:23;99095.06;;;23.72
18713;BMP280;9485;49.386;8.674;2023-08-01T09:51:47;99101.59;;;24.70
18713;BMP280;9485;49.386;8.674;2023-08-01T09:57:10;99100.38;;;25.07
18713;BMP280;9485;49.386;8.674;2023-08-01T10:02:33;99078.88;;;25.44
18713;BMP280;9485;49.386;8.674;2023-08-01T10:07:55;99086.84;;;25.80
18713;BMP280;9485;49.386;8.674;2023-08-01T10:13:23;99089.84;;;26.68
18713;BMP280;9485;49.386;8.674;2023-08-01T10:18:44;99092.84;;;27.22
18713;BMP280;9485;49.386;8.674;2023-08-01T10:24:06;99098.06;;;26.60
18713;BMP280;9485;49.386;8.674;2023-08-01T10:29:36;99093.13;;;27.01
18713;BMP280;9485;49.386;8.674;2023-08-01T10:34:57;99098.84;;;27.26
18713;BMP280;9485;49.386;8.674;2023-08-01T10:40:18;99092.97;;;27.10
18713;BMP280;9485;49.386;8.674;2023-08-01T10:45:40;99084.63;;;26.40
18713;BMP280;9485;49.386;8.674;2023-08-01T10:51:00;99093.94;;;25.54
18713;BMP280;9485;49.386;8.674;2023-08-01T10:56:22;99092.25;;;25.15
18713;BMP280;9485;49.386;8.674;2023-08-01T11:01:45;99073.69;;;26.02
18713;BMP280;9485;49.386;8.674;2023-08-01T11:07:06;99091.94;;;26.92
18713;BMP280;9485;49.386;8.674;2023-08-01T11:12:27;99098.72;;;27.50
18713;BMP280;9485;49.386;8.674;2023-08-01T11:17:51;99106.56;;;27.08
18713;BMP280;9485;49.386;8.674;2023-08-01T11:23:13;99117.41;;;26.69
18713;BMP280;9485;49.386;8.674;2023-08-01T11:28:33;99119.28;;;25.90
18713;BMP280;9485;49.386;8.674;2023-08-01T11:33:58;99124.06;;;25.85
18713;BMP280;9485;49.386;8.674;2023-08-01T11:39:19;99133.34;;;26.57
18713;BMP280;9485;49.386;8.674;2023-08-01T11:44:41;99136.22;;;27.20
18713;BMP280;9485;49.386;8.674;2023-08-01T11:50:06;99146.28;;;27.99
18713;BMP280;9485;49.386;8.674;2023-08-01T11:55:27;99140.66;;;28.30
18713;BMP280;9485;49.386;8.674;2023-08-01T12:00:48;99139.91;;;28.16
18713;BMP280;9485;49.386;8.674;2023-08-01T12:06:10;99144.41;;;28.19
18713;BMP280;9485;49.386;8.674;2023-08-01T12:11:32;99154.47;;;27.89
18713;BMP280;9485;49.386;8.674;2023-08-01T12:16:53;99143.63;;;27.49
18713;BMP280;9485;49.386;8.674;2023-08-01T12:22:15;99154.13;;;27.16
18713;BMP280;9485;49.386;8.674;2023-08-01T12:27:35;99151.81;;;26.63
18713;BMP280;9485;49.386;8.674;2023-08-01T12:32:56;99150.03;;;26.08
18713;BMP280;9485;49.386;8.674;2023-08-01T12:38:18;99155.22;;;26.59
18713;BMP280;9485;49.386;8.674;2023-08-01T12:43:38;99155.09;;;27.21
18713;BMP280;9485;49.386;8.674;2023-08-01T12:48:59;99152.53;;;27.94
18713;BMP280;9485;49.386;8.674;2023-08-01T12:54:21;99154.91;;;27.70
18713;BMP280;9485;49.386;8.674;2023-08-01T12:59:42;99167.16;;;27.82
18713;BMP280;9485;49.386;8.674;2023-08-01T13:05:03;99173.69;;;28.23
18713;BMP280;9485;49.386;8.674;2023-08-01T13:10:25;99167.25;;;28.69
18713;BMP280;9485;49.386;8.674;2023-08-01T13:15:46;99174.69;;;29.31
18713;BMP280;9485;49.386;8.674;2023-08-01T13:21:07;99174.88;;;29.66
18713;BMP280;9485;49.386;8.674;2023-08-01T13:26:29;99167.34;;;29.76
18713;BMP280;9485;49.386;8.674;2023-08-01T13:31:49;99171.63;;;29.43
18713;BMP280;9485;49.386;8.674;2023-08-01T13:37:10;99184.38;;;29.67
18713;BMP280;9485;49.386;8.674;2023-08-01T13:42:32;99173.94;;;29.62
18713;BMP280;9485;49.386;8.674;2023-08-01T13:47:52;99171.03;;;29.15
18713;BMP280;9485;49.386;8.674;2023-08-01T13:53:12;99173.00;;;28.67
18713;BMP280;9485;49.386;8.674;2023-08-01T13:58:34;99166.69;;;28.14
18713;BMP280;9485;49.386;8.674;2023-08-01T14:03:54;99167.78;;;27.94
18713;BMP280;9485;49.386;8.674;2023-08-01T14:09:15;99169.84;;;27.78
18713;BMP280;9485;49.386;8.674;2023-08-01T14:14:37;99158.34;;;27.94
18713;BMP280;9485;49.386;8.674;2023-08-01T14:19:58;99168.88;;;28.01
18713;BMP280;9485;49.386;8.674;2023-08-01T14:25:18;99179.00;;;28.42
18713;BMP280;9485;49.386;8.674;2023-08-01T14:30:40;99177.44;;;28.54
18713;BMP280;9485;49.386;8.674;2023-08-01T14:36:06;99188.13;;;28.36
18713;BMP280;9485;49.386;8.674;2023-08-01T14:41:27;99182.97;;;28.48
18713;BMP280;9485;49.386;8.674;2023-08-01T14:46:49;99195.53;;;28.82
18713;BMP280;9485;49.386;8.674;2023-08-01T14:52:10;99195.63;;;28.84
18713;BMP280;9485;49.386;8.674;2023-08-01T14:57:31;99190.47;;;28.53
18713;BMP280;9485;49.386;8.674;2023-08-01T15:02:53;99184.00;;;27.99
18713;BMP280;9485;49.386;8.674;2023-08-01T15:08:13;99184.63;;;27.57
18713;BMP280;9485;49.386;8.674;2023-08-01T15:13:35;99176.88;;;27.22
18713;BMP280;9485;49.386;8.674;2023-08-01T15:18:57;99187.31;;;27.27
18713;BMP280;9485;49.386;8.674;2023-08-01T15:24:18;99195.03;;;26.97
18713;BMP280;9485;49.386;8.674;2023-08-01T15:29:39;99190.19;;;26.63
18713;BMP280;9485;49.386;8.674;2023-08-01T15:35:01;99191.78;;;26.42
18713;BMP280;9485;49.386;8.674;2023-08-01T15:40:22;99201.25;;;26.42
18713;BMP280;9485;49.386;8.674;2023-08-01T15:45:42;99212.50;;;26.13
18713;BMP280;9485;49.386;8.674;2023-08-01T15:51:05;99201.41;;;25.85
18713;BMP280;9485;49.386;8.674;2023-08-01T15:56:26;99209.19;;;25.60
18713;BMP280;9485;49.386;8.674;2023-08-01T16:01:46;99210.94;;;25.42
18713;BMP280;9485;49.386;8.674;2023-08-01T16:07:08;99216.31;;;25.24
18713;BMP280;9485;49.386;8.674;2023-08-01T16:12:29;99214.50;;;25.08
18713;BMP280;9485;49.386;8.674;2023-08-01T16:17:49;99220.63;;;24.91
18713;BMP280;9485;49.386;8.674;2023-08-01T16:23:11;99224.00;;;24.76
18713;BMP280;9485;49.386;8.674;2023-08-01T16:28:32;99230.06;;;24.59
18713;BMP280;9485;49.386;8.674;2023-08-01T16:33:52;99238.69;;;24.48
18713;BMP280;9485;49.386;8.674;2023-08-01T16:39:14;99240.59;;;24.34
18713;BMP280;9485;49.386;8.674;2023-08-01T16:44:35;99299.66;;;24.12
18713;BMP280;9485;49.386;8.674;2023-08-01T16:49:56;99299.44;;;23.59
18713;BMP280;9485;49.386;8.674;2023-08-01T16:55:18;99308.84;;;23.20
18713;BMP280;9485;49.386;8.674;2023-08-01T17:00:39;99303.41;;;22.95
18713;BMP280;9485;49.386;8.674;2023-08-01T17:05:59;99302.81;;;22.78
18713;BMP280;9485;49.386;8.674;2023-08-01T17:11:21;99300.84;;;22.80
18713;BMP280;9485;49.386;8.674;2023-08-01T17:16:42;99306.75;;;22.92
18713;BMP280;9485;49.386;8.674;2023-08-01T17:22:03;99303.84;;;23.11
18713;BMP280;9485;49.386;8.674;2023-08-01T17:27:25;99307.19;;;23.17
18713;BMP280;9485;49.386;8.674;2023-08-01T17:32:46;99311.72;;;23.01
18713;BMP280;9485;49.386;8.674;2023-08-01T17:38:07;99330.06;;;22.86
18713;BMP280;9485;49.386;8.674;2023-08-01T17:43:29;99354.00;;;22.70
18713;BMP280;9485;49.386;8.674;2023-08-01T17:48:51;99389.28;;;22.52
18713;BMP280;9485;49.386;8.674;2023-08-01T17:54:11;99410.00;;;22.05
18713;BMP280;9485;49.386;8.674;2023-08-01T17:59:34;99428.22;;;21.38
18713;BMP280;9485;49.386;8.674;2023-08-01T18:04:58;99422.78;;;20.99
18713;BMP280;9485;49.386;8.674;2023-08-01T18:10:18;99421.69;;;20.77
18713;BMP280;9485;49.386;8.674;2023-08-01T18:15:40;99409.53;;;20.69
18713;BMP280;9485;49.386;8.674;2023-08-01T18:21:04;99401.59;;;20.60
18713;BMP280;9485;49.386;8.674;2023-08-01T18:26:26;99401.97;;;20.40
18713;BMP280;9485;49.386;8.674;2023-08-01T18:31:49;99419.06;;;20.31
18713;BMP280;9485;49.386;8.674;2023-08-01T18:37:09;99428.28;;;20.29
18713;BMP280;9485;49.386;8.674;2023-08-01T18:42:30;99419.56;;;20.20
18713;BMP280;9485;49.386;8.674;2023-08-01T18:47:55;99429.41;;;20.09
18713;BMP280;9485;49.386;8.674;2023-08-01T18:53:16;99429.22;;;20.07
18713;BMP280;9485;49.386;8.674;2023-08-01T18:58:37;99433.09;;;20.02
18713;BMP280;9485;49.386;8.674;2023-08-01T19:03:59;99425.97;;;20.03
18713;BMP280;9485;49.386;8.674;2023-08-01T19:09:20;99428.22;;;20.12
18713;BMP280;9485;49.386;8.674;2023-08-01T19:14:41;99440.09;;;20.09
18713;BMP280;9485;49.386;8.674;2023-08-01T19:20:05;99445.00;;;20.16
18713;BMP280;9485;49.386;8.674;2023-08-01T19:25:27;99451.31;;;20.14
18713;BMP280;9485;49.386;8.674;2023-08-01T19:30:48;99456.69;;;20.10
18713;BMP280;9485;49.386;8.674;2023-08-01T19:36:10;99463.41;;;20.05
18713;BMP280;9485;49.386;8.674;2023-08-01T19:41:30;99475.88;;;19.93
18713;BMP280;9485;49.386;8.674;2023-08-01T19:46:51;99482.59;;;19.88
18713;BMP280;9485;49.386;8.674;2023-08-01T19:52:13;99482.88;;;19.75
18713;BMP280;9485;49.386;8.674;2023-08-01T19:57:34;99482.75;;;19.65
18713;BMP280;9485;49.386;8.674;2023-08-01T20:02:56;99496.94;;;19.56
18713;BMP280;9485;49.386;8.674;2023-08-01T20:08:18;99492.56;;;19.48
18713;BMP280;9485;49.386;8.674;2023-08-01T20:13:38;99486.16;;;19.32
18713;BMP280;9485;49.386;8.674;2023-08-01T20:18:59;99485.97;;;19.30
18713;BMP280;9485;49.386;8.674;2023-08-01T20:24:21;99489.78;;;19.33
18713;BMP280;9485;49.386;8.674;2023-08-01T20:29:42;99488.88;;;19.23
18713;BMP280;9485;49.386;8.674;2023-08-01T20:35:03;99493.78;;;19.30
18713;BMP280;9485;49.386;8.674;2023-08-01T20:40:25;99505.44;;;19.32
18713;BMP280;9485;49.386;8.674;2023-08-01T20:45:45;99510.00;;;19.35
18713;BMP280;9485;49.386;8.674;2023-08-01T20:51:06;99500.47;;;19.32
18713;BMP280;9485;49.386;8.674;2023-08-01T20:56:28;99501.06;;;19.31
18713;BMP280;9485;49.386;8.674;2023-08-01T21:01:48;99490.94;;;19.30
18713;BMP280;9485;49.386;8.674;2023-08-01T21:07:09;99497.19;;;19.36
18713;BMP280;9485;49.386;8.674;2023-08-01T21:12:31;99490.16;;;19.37
18713;BMP280;9485;49.386;8.674;2023-08-01T21:17:53;99484.06;;;19.33
18713;BMP280;9485;49.386;8.674;2023-08-01T21:23:13;99493.84;;;19.22
18713;BMP280;9485;49.386;8.674;2023-08-01T21:28:36;99477.84;;;19.12
18713;BMP280;9485;49.386;8.674;2023-08-01T21:33:56;99474.38;;;19.06
18713;BMP280;9485;49.386;8.674;2023-08-01T21:39:18;99471.91;;;19.02
18713;BMP280;9485;49.386;8.674;2023-08-01T21:44:40;99471.75;;;19.00
18713;BMP280;9485;49.386;8.674;2023-08-01T21:50:00;99470.03;;;18.97
18713;BMP280;9485;49.386;8.674;2023-08-01T21:55:21;99482.41;;;19.00
18713;BMP280;9485;49.386;8.674;2023-08-01T22:00:44;99471.22;;;18.87
18713;BMP280;9485;49.386;8.674;2023-08-01T22:06:05;99483.97;;;18.86
18713;BMP280;9485;49.386;8.674;2023-08-01T22:11:26;99486.84;;;18.86
18713;BMP280;9485;49.386;8.674;2023-08-01T22:16:47;99476.72;;;18.85
18713;BMP280;9485;49.386;8.674;2023-08-01T22:22:08;99487.44;;;18.84
18713;BMP280;9485;49.386;8.674;2023-08-01T22:27:29;99491.03;;;18.85
18713;BMP280;9485;49.386;8.674;2023-08-01T22:32:51;99491.63;;;18.83
18713;BMP280;9485;49.386;8.674;2023-08-01T22:38:11;99485.16;;;18.83
18713;BMP280;9485;49.386;8.674;2023-08-01T22:43:32;99488.19;;;18.78
18713;BMP280;9485;49.386;8.674;2023-08-01T22:48:54;99498.13;;;18.77
18713;BMP280;9485;49.386;8.674;2023-08-01T22:54:14;99488.19;;;18.78
18713;BMP280;9485;49.386;8.674;2023-08-01T22:59:35;99479.03;;;18.79
18713;BMP280;9485;49.386;8.674;2023-08-01T23:04:56;99484.00;;;18.79
18713;BMP280;9485;49.386;8.674;2023-08-01T23:10:17;99480.19;;;18.83
18713;BMP280;9485;49.386;8.674;2023-08-01T23:15:38;99479.41;;;18.90
18713;BMP280;9485;49.386;8.674;2023-08-01T23:21:01;99475.75;;;18.97
18713;BMP280;9485;49.386;8.674;2023-08-01T23:26:22;99477.06;;;19.04
18713;BMP280;9485;49.386;8.674;2023-08-01T23:31:43;99474.56;;;19.08
18713;BMP280;9485;49.386;8.674;2023-08-01T23:37:05;99476.50;;;19.13
18713;BMP280;9485;49.386;8.674;2023-08-01T23:42:25;99474.38;;;19.21
18713;BMP280;9485;49.386;8.674;2023-08-01T23:47:46;99482.34;;;19.30
18713;BMP280;9485;49.386;8.674;2023-08-01T23:53:08;99474.69;;;19.32
18713;BMP280;9485;49.386;8.674;2023-08-01T23:58:29;99477.16;;;19.36
